createdAt,value
2022-09-05T00:00:27.633Z,2.60
2022-09-05T00:03:07.708Z,3.25
2022-09-05T00:06:02.778Z,3.08
2022-09-05T00:08:45.121Z,3.40
2022-09-05T00:11:41.202Z,3.28
2022-09-05T00:15:16.054Z,3.53
2022-09-05T00:18:00.191Z,3.50
2022-09-05T00:24:19.253Z,3.05
2022-09-05T00:24:27.840Z,3.13
2022-09-05T00:26:50.164Z,3.63
2022-09-05T00:31:06.131Z,3.28
2022-09-05T00:32:36.514Z,4.15
2022-09-05T00:35:20.608Z,2.50
2022-09-05T00:37:55.330Z,2.90
2022-09-05T00:40:33.594Z,2.83
2022-09-05T00:43:07.352Z,2.65
2022-09-05T00:45:43.718Z,2.55
2022-09-05T00:48:33.438Z,2.47
2022-09-05T00:51:18.268Z,2.70
2022-09-05T00:54:01.145Z,2.90
2022-09-05T00:56:47.862Z,2.38
2022-09-05T00:59:59.097Z,2.40
2022-09-05T01:02:51.699Z,2.30
2022-09-05T01:05:40.199Z,2.50
2022-09-05T01:08:24.614Z,2.50
2022-09-05T01:11:03.725Z,2.58
2022-09-05T01:13:41.948Z,2.45
2022-09-05T01:16:23.554Z,2.72
2022-09-05T01:19:07.061Z,2.30
2022-09-05T01:22:09.522Z,2.15
2022-09-05T01:25:05.455Z,2.00
2022-09-05T01:28:37.021Z,2.40
2022-09-05T01:30:59.391Z,2.03
2022-09-05T01:33:43.397Z,2.35
2022-09-05T01:36:27.930Z,2.13
2022-09-05T01:40:10.526Z,2.05
2022-09-05T01:42:00.982Z,1.85
2022-09-05T01:47:40.225Z,1.60
2022-09-05T01:50:28.887Z,1.70
2022-09-05T01:53:13.512Z,1.60
2022-09-05T01:56:18.104Z,1.67
2022-09-05T01:58:59.331Z,1.90
2022-09-05T02:01:37.309Z,1.63
2022-09-05T02:04:31.741Z,1.42
2022-09-05T02:07:15.210Z,1.58
2022-09-05T02:10:20.293Z,1.80
2022-09-05T02:12:58.421Z,1.98
2022-09-05T02:15:52.459Z,1.35
2022-09-05T02:18:53.047Z,1.40
2022-09-05T02:21:55.683Z,1.70
2022-09-05T02:24:29.643Z,1.70
2022-09-05T02:27:37.417Z,1.10
2022-09-05T02:30:12.488Z,1.40
2022-09-05T02:32:49.893Z,1.45
2022-09-05T02:35:28.616Z,2.10
2022-09-05T02:41:32.056Z,1.52
2022-09-05T02:45:09.704Z,1.38
2022-09-05T02:45:20.403Z,1.60
2022-09-05T02:47:01.990Z,1.55
2022-09-05T02:52:50.456Z,2.05
2022-09-05T02:57:34.885Z,2.25
2022-09-05T02:57:47.027Z,1.95
2022-09-05T02:59:09.247Z,2.08
2022-09-05T03:02:00.642Z,2.03
2022-09-05T03:04:39.126Z,1.83
2022-09-05T03:07:26.010Z,1.92
2022-09-05T03:10:11.954Z,1.80
2022-09-05T03:13:15.153Z,1.92
2022-09-05T03:16:18.844Z,1.90
2022-09-05T03:19:21.931Z,2.03
2022-09-05T03:22:37.150Z,1.55
2022-09-05T03:25:50.401Z,1.73
2022-09-05T03:29:14.779Z,2.10
2022-09-05T03:32:09.683Z,1.55
2022-09-05T03:35:11.777Z,1.50
2022-09-05T03:38:04.080Z,1.52
2022-09-05T03:40:58.717Z,1.85
2022-09-05T03:44:04.550Z,1.48
2022-09-05T03:47:00.504Z,1.40
2022-09-05T03:54:00.490Z,1.77
2022-09-05T03:57:19.158Z,1.50
2022-09-05T03:57:27.026Z,1.77
2022-09-05T03:59:20.484Z,1.50
2022-09-05T04:03:30.851Z,1.58
2022-09-05T04:08:17.766Z,1.50
2022-09-05T04:08:19.422Z,1.33
2022-09-05T04:10:37.527Z,1.60
2022-09-05T04:13:11.484Z,1.30
2022-09-05T04:15:47.552Z,1.77
2022-09-05T04:18:32.755Z,1.40
2022-09-05T04:21:07.951Z,1.95
2022-09-05T04:23:49.850Z,1.33
2022-09-05T04:26:32.979Z,1.60
2022-09-05T04:29:10.513Z,1.52
2022-09-05T04:32:06.546Z,1.48
2022-09-05T04:35:00.288Z,1.70
2022-09-05T04:37:48.631Z,1.45
2022-09-05T04:40:48.215Z,1.55
2022-09-05T04:43:27.500Z,1.40
2022-09-05T04:46:08.333Z,1.35
2022-09-05T04:48:44.355Z,1.73
2022-09-05T04:51:43.940Z,1.45
2022-09-05T04:54:36.851Z,1.73
2022-09-05T04:57:17.464Z,2.00
2022-09-05T05:02:36.714Z,1.38
2022-09-05T05:06:09.238Z,1.50
2022-09-05T05:06:11.399Z,1.60
2022-09-05T05:08:48.071Z,1.50
2022-09-05T05:17:53.918Z,1.42
2022-09-05T05:18:11.818Z,1.60
2022-09-05T05:18:14.532Z,1.45
2022-09-05T05:20:40.057Z,1.60
2022-09-05T05:23:08.055Z,1.40
2022-09-05T05:25:46.507Z,1.67
2022-09-05T05:28:24.842Z,1.50
2022-09-05T05:31:01.576Z,1.40
2022-09-05T05:33:35.867Z,1.67
2022-09-05T05:36:09.593Z,1.45
2022-09-05T05:38:54.019Z,1.50
2022-09-05T05:41:29.297Z,2.20
2022-09-05T05:43:59.485Z,1.80
2022-09-05T05:46:34.877Z,1.58
2022-09-05T05:49:27.755Z,1.90
2022-09-05T05:52:16.041Z,1.88
2022-09-05T05:54:51.377Z,1.48
2022-09-05T05:58:04.251Z,1.70
2022-09-05T06:00:54.500Z,2.03
2022-09-05T06:04:02.299Z,1.98
2022-09-05T06:06:42.579Z,2.00
2022-09-05T06:14:50.772Z,1.83
2022-09-05T06:14:55.457Z,2.05
2022-09-05T06:16:36.746Z,1.55
2022-09-05T06:20:20.921Z,1.98
2022-09-05T06:22:55.981Z,2.13
2022-09-05T06:25:51.545Z,2.05
2022-09-05T06:28:27.687Z,2.13
2022-09-05T06:31:30.763Z,1.90
2022-09-05T06:34:33.140Z,2.00
2022-09-05T06:37:16.649Z,2.05
2022-09-05T06:40:12.291Z,2.10
2022-09-05T06:43:01.790Z,2.25
2022-09-05T06:45:46.828Z,2.20
2022-09-05T06:48:36.641Z,1.73
2022-09-05T06:51:44.855Z,2.08
2022-09-05T06:54:37.008Z,1.80
2022-09-05T06:57:43.905Z,2.20
2022-09-05T07:00:24.928Z,2.13
2022-09-05T07:03:22.888Z,1.92
2022-09-05T07:05:59.800Z,1.73
2022-09-05T07:08:40.812Z,2.45
2022-09-05T07:11:17.179Z,2.13
2022-09-05T07:13:59.807Z,2.05
2022-09-05T07:16:42.267Z,2.13
2022-09-05T07:19:27.788Z,2.05
2022-09-05T07:22:47.925Z,2.33
2022-09-05T07:25:18.284Z,2.33
2022-09-05T07:28:28.423Z,2.10
2022-09-05T07:30:49.731Z,2.60
2022-09-05T07:33:25.317Z,2.42
2022-09-05T07:36:07.435Z,2.10
2022-09-05T07:38:52.478Z,2.90
2022-09-05T07:41:27.777Z,2.65
2022-09-05T07:44:00.981Z,2.78
2022-09-05T07:46:33.925Z,2.05
2022-09-05T07:49:09.747Z,1.63
2022-09-05T07:56:36.309Z,1.77
2022-09-05T07:56:55.223Z,1.90
2022-09-05T07:57:50.732Z,1.92
2022-09-05T08:00:26.864Z,2.28
2022-09-05T08:03:02.413Z,2.90
2022-09-05T08:05:44.788Z,2.58
2022-09-05T08:08:18.691Z,2.35
2022-09-05T08:11:23.171Z,2.60
2022-09-05T08:14:41.743Z,2.40
2022-09-05T08:16:48.651Z,2.10
2022-09-05T08:19:44.940Z,2.10
2022-09-05T08:22:23.625Z,1.90
2022-09-05T08:25:02.551Z,1.95
2022-09-05T08:27:36.740Z,1.80
2022-09-05T08:30:26.872Z,2.05
2022-09-05T08:33:10.376Z,2.10
2022-09-05T08:35:45.353Z,2.10
2022-09-05T08:38:22.300Z,2.30
2022-09-05T08:41:06.403Z,2.22
2022-09-05T08:46:35.177Z,2.10
2022-09-05T08:46:41.709Z,2.22
2022-09-05T08:49:45.997Z,1.98
2022-09-05T08:52:25.240Z,2.53
2022-09-05T08:55:07.664Z,2.45
2022-09-05T08:58:15.998Z,2.67
2022-09-05T09:00:55.160Z,2.10
2022-09-05T09:03:35.468Z,2.55
2022-09-05T09:07:29.144Z,2.33
2022-09-05T09:10:04.407Z,2.40
2022-09-05T09:13:09.948Z,2.65
2022-09-05T09:15:42.562Z,2.05
2022-09-05T09:18:16.976Z,2.47
2022-09-05T09:20:53.631Z,2.78
2022-09-05T09:23:43.281Z,2.63
2022-09-05T09:26:17.271Z,3.35
2022-09-05T09:28:58.418Z,2.53
2022-09-05T09:31:38.862Z,3.10
2022-09-05T09:34:36.671Z,3.45
2022-09-05T09:37:40.276Z,2.75
2022-09-05T09:41:00.544Z,2.65
2022-09-05T09:44:02.111Z,2.63
2022-09-05T09:46:43.786Z,2.72
2022-09-05T09:49:35.851Z,2.55
2022-09-05T09:52:37.632Z,2.70
2022-09-05T09:55:48.566Z,2.88
2022-09-05T09:58:50.223Z,3.00
2022-09-05T10:01:53.808Z,2.63
2022-09-05T10:10:39.192Z,3.17
2022-09-05T10:10:45.164Z,2.95
2022-09-05T10:14:50.619Z,2.70
2022-09-05T10:17:40.777Z,3.47
2022-09-05T10:20:29.454Z,2.90
2022-09-05T10:23:10.800Z,2.88
2022-09-05T10:26:13.221Z,2.55
2022-09-05T10:28:53.274Z,2.95
2022-09-05T10:35:10.209Z,2.83
2022-09-05T10:35:19.765Z,2.83
2022-09-05T10:37:51.022Z,2.90
2022-09-05T10:40:25.969Z,2.72
2022-09-05T10:43:02.620Z,2.60
2022-09-05T10:45:45.054Z,3.13
2022-09-05T10:48:24.947Z,2.80
2022-09-05T10:51:27.101Z,2.80
2022-09-05T10:54:15.337Z,3.30
2022-09-05T10:56:48.924Z,3.55
2022-09-05T11:02:28.887Z,2.85
2022-09-05T11:02:34.758Z,2.83
2022-09-05T11:05:22.321Z,3.13
2022-09-05T11:08:00.553Z,2.88
2022-09-05T11:10:36.783Z,2.70
2022-09-05T11:13:17.590Z,2.85
2022-09-05T11:16:04.755Z,2.80
2022-09-05T11:19:04.288Z,2.60
2022-09-05T11:22:21.941Z,2.50
2022-09-05T11:24:51.962Z,2.97
2022-09-05T11:27:30.116Z,2.78
2022-09-05T11:30:06.224Z,2.90
2022-09-05T11:39:45.767Z,2.80
2022-09-05T11:40:01.996Z,2.90
2022-09-05T11:40:04.115Z,2.67
2022-09-05T11:42:25.712Z,3.28
2022-09-05T11:45:15.629Z,2.97
2022-09-05T11:48:27.427Z,3.28
2022-09-05T11:51:38.795Z,3.60
2022-09-05T11:54:44.091Z,2.95
2022-09-05T11:57:46.975Z,3.80
2022-09-05T12:00:33.429Z,3.00
2022-09-05T12:03:59.798Z,2.67
2022-09-05T12:06:57.453Z,4.25
2022-09-05T12:09:54.325Z,3.78
2022-09-05T12:12:41.385Z,3.88
2022-09-05T12:15:27.970Z,3.50
2022-09-05T12:18:21.575Z,3.50
2022-09-05T12:21:03.158Z,3.47
2022-09-05T12:24:11.645Z,3.65
2022-09-05T12:27:40.164Z,4.20
2022-09-05T12:29:49.001Z,3.90
2022-09-05T12:35:32.120Z,4.15
2022-09-05T12:36:04.363Z,3.50
2022-09-05T12:40:56.858Z,3.58
2022-09-05T12:41:40.656Z,3.72
2022-09-05T12:44:45.052Z,3.97
2022-09-05T12:47:16.656Z,3.78
2022-09-05T12:50:03.405Z,2.72
2022-09-05T12:52:48.315Z,3.08
2022-09-05T12:55:29.110Z,3.22
2022-09-05T13:02:18.645Z,3.28
2022-09-05T13:03:13.414Z,3.08
2022-09-05T13:04:16.941Z,2.70
2022-09-05T13:06:47.227Z,3.35
2022-09-05T13:09:30.875Z,3.38
2022-09-05T13:14:46.328Z,3.75
2022-09-05T13:15:21.908Z,3.85
2022-09-05T13:18:01.065Z,3.90
2022-09-05T13:20:37.319Z,4.32
2022-09-05T13:23:19.453Z,3.75
2022-09-05T13:25:58.314Z,3.70
2022-09-05T13:28:35.710Z,4.15
2022-09-05T13:37:53.800Z,3.42
2022-09-05T13:38:01.205Z,3.97
2022-09-05T13:38:11.970Z,3.47
2022-09-05T13:39:54.041Z,3.80
2022-09-05T13:42:28.012Z,4.00
2022-09-05T13:44:59.290Z,3.90
2022-09-05T13:48:21.731Z,3.70
2022-09-05T13:50:55.486Z,3.67
2022-09-05T13:53:36.980Z,4.03
2022-09-05T13:56:23.797Z,4.07
2022-09-05T13:58:56.535Z,3.85
2022-09-05T14:02:24.902Z,4.03
2022-09-05T14:05:20.751Z,4.28
2022-09-05T14:08:27.642Z,3.70
2022-09-05T14:11:24.354Z,3.83
2022-09-05T14:14:11.328Z,3.83
2022-09-05T14:16:53.490Z,3.75
2022-09-05T14:19:43.183Z,3.55
2022-09-05T14:22:41.065Z,3.85
2022-09-05T14:25:19.277Z,3.47
2022-09-05T14:27:50.644Z,4.18
2022-09-05T14:34:38.337Z,4.03
2022-09-05T14:37:45.870Z,4.57
2022-09-05T14:38:00.544Z,4.03
2022-09-05T14:40:40.497Z,3.95
2022-09-05T14:43:39.161Z,4.18
2022-09-05T14:46:28.749Z,3.63
2022-09-05T14:49:22.601Z,4.65
2022-09-05T14:51:55.458Z,4.57
2022-09-05T14:59:40.609Z,4.60
2022-09-05T15:02:42.866Z,4.63
2022-09-05T15:03:06.255Z,4.53
2022-09-05T15:05:43.836Z,5.65
2022-09-05T15:10:02.377Z,4.90
2022-09-05T15:12:18.265Z,4.15
2022-09-05T15:14:06.088Z,4.82
2022-09-05T15:16:43.872Z,5.78
2022-09-05T15:20:05.563Z,5.07
2022-09-05T15:22:37.570Z,4.60
2022-09-05T15:25:18.043Z,4.95
2022-09-05T15:27:48.287Z,5.13
2022-09-05T15:30:22.589Z,5.05
2022-09-05T15:33:13.896Z,5.80
2022-09-05T15:35:44.862Z,5.05
2022-09-05T15:38:33.665Z,4.75
2022-09-05T15:41:25.093Z,5.80
2022-09-05T15:44:00.134Z,5.10
2022-09-05T15:46:43.029Z,5.88
2022-09-05T15:49:14.423Z,5.38
2022-09-05T15:51:48.868Z,5.32
2022-09-05T15:54:37.666Z,5.38
2022-09-05T15:57:17.505Z,4.57
2022-09-05T15:59:49.846Z,4.75
2022-09-05T16:02:27.187Z,5.32
2022-09-05T16:10:36.698Z,5.40
2022-09-05T16:10:49.867Z,5.57
2022-09-05T16:11:31.646Z,5.00
2022-09-05T16:13:53.346Z,5.78
2022-09-05T16:23:20.988Z,6.00
2022-09-05T16:23:23.590Z,5.28
2022-09-05T16:23:24.702Z,4.88
2022-09-05T16:25:31.487Z,5.55
2022-09-05T16:28:05.019Z,4.82
2022-09-05T16:30:35.952Z,4.80
2022-09-05T16:33:09.851Z,5.18
2022-09-05T16:35:48.306Z,5.10
2022-09-05T16:38:22.873Z,4.82
2022-09-05T16:41:24.448Z,5.10
2022-09-05T16:43:58.457Z,4.18
2022-09-05T16:46:33.016Z,5.22
2022-09-05T16:49:11.953Z,5.00
2022-09-05T16:51:50.018Z,5.25
2022-09-05T16:54:27.687Z,4.97
2022-09-05T16:57:22.235Z,4.47
2022-09-05T16:59:53.178Z,3.95
2022-09-05T17:02:29.771Z,4.65
2022-09-05T17:05:20.338Z,5.07
2022-09-05T17:08:05.809Z,4.75
2022-09-05T17:10:43.084Z,4.50
2022-09-05T17:13:18.680Z,4.10
2022-09-05T17:15:52.785Z,4.20
2022-09-05T17:18:27.879Z,3.97
2022-09-05T17:21:03.977Z,3.95
2022-09-05T17:29:18.961Z,4.22
2022-09-05T17:29:37.961Z,4.95
2022-09-05T17:31:20.849Z,4.22
2022-09-05T17:32:36.971Z,4.25
2022-09-05T17:35:18.590Z,5.07
2022-09-05T17:38:11.788Z,4.05
2022-09-05T17:41:20.042Z,4.82
2022-09-05T17:43:58.775Z,4.72
2022-09-05T17:46:31.981Z,4.20
2022-09-05T17:49:18.648Z,4.60
2022-09-05T17:52:18.424Z,4.70
2022-09-05T17:54:50.213Z,4.47
2022-09-05T17:57:42.378Z,4.28
2022-09-05T18:00:45.760Z,3.75
2022-09-05T18:04:17.731Z,4.60
2022-09-05T18:07:00.600Z,4.88
2022-09-05T18:09:59.063Z,4.63
2022-09-05T18:13:14.254Z,4.22
2022-09-05T18:16:10.912Z,4.40
2022-09-05T18:19:28.375Z,4.32
2022-09-05T18:21:50.188Z,4.70
2022-09-05T18:24:33.370Z,5.53
2022-09-05T18:27:35.083Z,4.57
2022-09-05T18:30:11.435Z,4.60
2022-09-05T18:32:47.218Z,5.35
2022-09-05T18:35:37.662Z,4.45
2022-09-05T18:38:50.139Z,4.30
2022-09-05T18:41:21.691Z,4.75
2022-09-05T18:44:13.244Z,4.90
2022-09-05T18:46:48.373Z,5.38
2022-09-05T18:50:23.320Z,4.97
2022-09-05T18:52:23.592Z,4.80
2022-09-05T18:56:09.360Z,5.43
2022-09-05T18:57:58.982Z,5.65
2022-09-05T19:00:44.454Z,5.22
2022-09-05T19:03:24.993Z,5.88
2022-09-05T19:06:37.015Z,5.03
2022-09-05T19:09:07.705Z,4.93
2022-09-05T19:11:42.323Z,5.28
2022-09-05T19:15:19.005Z,5.40
2022-09-05T19:18:26.414Z,5.70
2022-09-05T19:21:11.798Z,5.47
2022-09-05T19:23:46.273Z,4.97
2022-09-05T19:26:15.868Z,5.63
2022-09-05T19:36:57.279Z,4.03
2022-09-05T19:36:59.600Z,4.05
2022-09-05T19:37:13.592Z,3.70
2022-09-05T19:37:47.935Z,3.70
2022-09-05T19:47:27.106Z,3.10
2022-09-05T19:47:37.188Z,2.90
2022-09-05T19:47:37.850Z,3.35
2022-09-05T19:49:07.068Z,3.53
2022-09-05T19:51:37.846Z,3.65
2022-09-05T19:54:08.954Z,3.55
2022-09-05T19:56:39.981Z,3.03
2022-09-05T19:59:19.364Z,2.97
2022-09-05T20:01:49.109Z,3.28
2022-09-05T20:04:19.249Z,3.10
2022-09-05T20:06:48.055Z,2.85
2022-09-05T20:09:19.592Z,2.80
2022-09-05T20:11:56.969Z,2.63
2022-09-05T20:14:30.796Z,2.90
2022-09-05T20:17:21.115Z,2.50
2022-09-05T20:19:51.941Z,2.72
2022-09-05T20:22:49.075Z,2.67
2022-09-05T20:25:36.153Z,2.95
2022-09-05T20:28:09.846Z,2.80
2022-09-05T20:30:44.817Z,3.38
2022-09-05T20:33:22.271Z,3.08
2022-09-05T20:43:12.219Z,3.35
2022-09-05T20:43:18.457Z,3.15
2022-09-05T20:43:27.683Z,3.00
2022-09-05T20:44:37.993Z,3.38
2022-09-05T20:54:04.286Z,3.15
2022-09-05T20:54:14.764Z,3.72
2022-09-05T20:54:20.950Z,3.45
2022-09-05T20:55:43.095Z,3.63
2022-09-05T20:58:15.595Z,3.83
2022-09-05T21:01:15.487Z,4.38
2022-09-05T21:07:36.027Z,3.90
2022-09-05T21:10:07.932Z,4.03
2022-09-05T21:12:46.137Z,4.10
2022-09-05T21:15:28.342Z,4.38
2022-09-05T21:18:17.870Z,4.25
2022-09-05T21:20:54.655Z,3.30
2022-09-05T21:23:29.678Z,4.28
2022-09-05T21:26:00.934Z,4.13
2022-09-05T21:28:36.322Z,4.43
2022-09-05T21:31:15.942Z,3.97
2022-09-05T21:33:46.302Z,4.63
2022-09-05T21:36:17.443Z,4.38
2022-09-05T21:38:46.411Z,4.47
2022-09-05T21:41:18.883Z,4.47
2022-09-05T21:47:44.676Z,4.75
2022-09-05T21:47:49.875Z,4.90
2022-09-05T21:49:37.121Z,4.03
2022-09-05T21:52:10.472Z,4.43
2022-09-05T21:59:16.952Z,4.10
2022-09-05T21:59:22.284Z,4.10
2022-09-05T22:00:24.077Z,4.30
2022-09-05T22:02:54.155Z,4.90
2022-09-05T22:05:25.485Z,4.07
2022-09-05T22:07:55.864Z,4.45
2022-09-05T22:10:33.858Z,4.07
2022-09-05T22:13:13.666Z,3.97
2022-09-05T22:15:48.809Z,4.35
2022-09-05T22:18:18.884Z,5.28
2022-09-05T22:21:31.619Z,4.55
2022-09-05T22:23:44.799Z,4.53
2022-09-05T22:26:14.661Z,4.75
2022-09-05T22:28:49.174Z,5.00
2022-09-05T22:31:27.891Z,3.88
2022-09-05T22:34:01.314Z,4.43
2022-09-05T22:36:30.010Z,4.82
2022-09-05T22:38:58.897Z,4.38
2022-09-05T22:41:30.054Z,4.43
2022-09-05T22:44:00.495Z,4.45
2022-09-05T22:46:29.374Z,4.72
2022-09-05T22:49:00.287Z,4.70
2022-09-05T22:51:29.229Z,4.97
2022-09-05T22:53:58.360Z,4.55
2022-09-05T22:56:35.911Z,4.95
2022-09-05T22:59:05.795Z,5.28
2022-09-05T23:01:36.080Z,4.80
2022-09-05T23:04:07.280Z,4.38
2022-09-05T23:06:35.764Z,5.30
2022-09-05T23:09:04.320Z,4.50
2022-09-05T23:11:33.784Z,4.53
2022-09-05T23:14:02.200Z,5.45
2022-09-05T23:16:33.981Z,4.78
2022-09-05T23:19:04.991Z,5.13
2022-09-05T23:21:36.662Z,4.63
2022-09-05T23:24:07.094Z,4.85
2022-09-05T23:26:36.302Z,4.68
2022-09-05T23:29:04.832Z,5.10
2022-09-05T23:31:33.612Z,4.72
2022-09-05T23:34:02.266Z,4.97
2022-09-05T23:36:31.667Z,4.82
2022-09-05T23:39:01.797Z,5.18
2022-09-05T23:41:31.059Z,5.95
2022-09-05T23:43:59.659Z,5.03
2022-09-05T23:46:28.626Z,5.90
2022-09-05T23:48:57.364Z,5.75
2022-09-05T23:51:27.196Z,5.55
2022-09-05T23:53:56.080Z,5.28
2022-09-05T23:56:26.343Z,5.40
2022-09-05T23:58:56.076Z,6.30
